createdAt,value
2023-01-18T00:01:12.368Z,23.48
2023-01-18T00:03:43.061Z,25.05
2023-01-18T00:06:12.253Z,22.52
2023-01-18T00:08:43.094Z,22.27
2023-01-18T00:11:14.658Z,22.27
2023-01-18T00:13:43.768Z,23.00
2023-01-18T00:16:15.394Z,22.33
2023-01-18T00:18:45.029Z,23.60
2023-01-18T00:21:13.312Z,22.17
2023-01-18T00:23:41.743Z,23.25
2023-01-18T00:26:12.947Z,24.13
2023-01-18T00:28:41.671Z,22.25
2023-01-18T00:31:21.643Z,22.45
2023-01-18T00:33:50.837Z,21.67
2023-01-18T00:36:19.511Z,23.65
2023-01-18T00:38:54.698Z,23.13
2023-01-18T00:41:23.666Z,22.25
2023-01-18T00:43:53.693Z,21.30
2023-01-18T00:46:25.207Z,21.58
2023-01-18T00:48:55.821Z,21.25
2023-01-18T00:51:25.929Z,20.35
2023-01-18T00:53:54.091Z,20.90
2023-01-18T00:56:23.653Z,20.85
2023-01-18T00:58:51.967Z,20.42
2023-01-18T01:01:20.688Z,18.35
2023-01-18T01:04:07.394Z,18.35
2023-01-18T01:06:45.774Z,17.47
2023-01-18T01:09:29.767Z,18.70
2023-01-18T01:12:17.880Z,18.40
2023-01-18T01:15:06.558Z,18.38
2023-01-18T01:17:56.522Z,17.30
2023-01-18T01:20:44.954Z,18.80
2023-01-18T01:23:39.523Z,19.75
2023-01-18T01:26:11.131Z,18.33
2023-01-18T01:28:43.105Z,18.00
2023-01-18T01:31:14.267Z,19.27
2023-01-18T01:33:42.615Z,17.77
2023-01-18T01:36:13.078Z,19.45
2023-01-18T01:38:44.677Z,18.80
2023-01-18T01:41:20.360Z,17.20
2023-01-18T01:43:51.131Z,17.17
2023-01-18T01:46:44.337Z,18.73
2023-01-18T01:49:15.537Z,17.63
2023-01-18T01:51:47.483Z,16.88
2023-01-18T01:54:23.084Z,18.30
2023-01-18T01:56:56.365Z,16.30
2023-01-18T01:59:25.003Z,17.85
2023-01-18T02:01:53.387Z,17.85
2023-01-18T02:04:21.598Z,17.83
2023-01-18T02:06:49.924Z,17.35
2023-01-18T02:09:23.883Z,17.80
2023-01-18T02:11:56.496Z,17.77
2023-01-18T02:14:27.925Z,17.80
2023-01-18T02:17:45.533Z,18.40
2023-01-18T02:20:50.293Z,17.58
2023-01-18T02:23:46.005Z,16.45
2023-01-18T02:26:34.735Z,18.45
2023-01-18T02:29:46.618Z,17.63
2023-01-18T02:32:29.723Z,17.35
2023-01-18T02:35:18.767Z,17.48
2023-01-18T02:38:20.084Z,16.38
2023-01-18T02:41:20.215Z,16.77
2023-01-18T02:44:10.620Z,15.38
2023-01-18T02:46:41.242Z,15.43
2023-01-18T02:49:36.283Z,16.05
2023-01-18T02:52:09.325Z,15.65
2023-01-18T02:54:40.520Z,14.43
2023-01-18T02:57:16.291Z,15.27
2023-01-18T02:59:55.288Z,14.90
2023-01-18T03:02:26.759Z,15.77
2023-01-18T03:04:56.408Z,14.90
2023-01-18T03:07:33.530Z,15.00
2023-01-18T03:12:47.375Z,14.05
2023-01-18T03:15:59.056Z,14.85
2023-01-18T03:18:35.642Z,13.43
2023-01-18T03:21:06.215Z,14.57
2023-01-18T03:23:40.715Z,14.32
2023-01-18T03:26:20.914Z,14.27
2023-01-18T03:29:16.556Z,13.70
2023-01-18T03:32:10.557Z,14.00
2023-01-18T03:34:50.393Z,14.02
2023-01-18T03:37:28.998Z,15.30
2023-01-18T03:40:11.450Z,14.50
2023-01-18T03:42:59.044Z,15.23
2023-01-18T03:48:00.197Z,15.60
2023-01-18T03:50:43.571Z,14.88
2023-01-18T03:53:17.487Z,14.95
2023-01-18T03:55:52.397Z,14.00
2023-01-18T03:58:25.516Z,13.77
2023-01-18T04:00:54.615Z,15.45
2023-01-18T04:03:23.451Z,14.52
2023-01-18T04:05:51.807Z,13.95
2023-01-18T04:08:22.250Z,15.63
2023-01-18T04:10:50.888Z,14.63
2023-01-18T04:13:19.177Z,14.73
2023-01-18T04:15:47.382Z,13.85
2023-01-18T04:18:16.127Z,13.52
2023-01-18T04:20:44.808Z,14.23
2023-01-18T04:23:13.448Z,14.57
2023-01-18T04:25:46.084Z,14.95
2023-01-18T04:28:14.927Z,15.95
2023-01-18T04:30:43.087Z,15.05
2023-01-18T04:33:11.813Z,13.85
2023-01-18T04:35:40.329Z,13.05
2023-01-18T04:38:08.985Z,13.48
2023-01-18T04:40:37.616Z,11.82
2023-01-18T04:43:06.217Z,12.68
2023-01-18T04:45:34.406Z,14.20
2023-01-18T04:48:02.981Z,13.27
2023-01-18T04:50:31.893Z,13.00
2023-01-18T04:53:00.778Z,12.68
2023-01-18T04:55:29.219Z,13.63
2023-01-18T04:57:57.889Z,12.77
2023-01-18T05:00:26.321Z,12.48
2023-01-18T05:02:54.668Z,13.48
2023-01-18T05:05:24.034Z,14.27
2023-01-18T05:07:52.706Z,14.73
2023-01-18T05:10:20.860Z,13.02
2023-01-18T05:12:49.177Z,14.90
2023-01-18T05:15:19.053Z,14.32
2023-01-18T05:17:47.533Z,14.15
2023-01-18T05:20:16.186Z,13.13
2023-01-18T05:22:44.352Z,13.80
2023-01-18T05:25:12.503Z,14.07
2023-01-18T05:27:41.592Z,13.43
2023-01-18T05:30:11.394Z,12.90
2023-01-18T05:32:40.038Z,13.27
2023-01-18T16:40:43.980Z,33.03
2023-01-18T16:43:18.460Z,33.03
2023-01-18T16:45:48.992Z,31.25
2023-01-18T16:48:23.188Z,30.20
2023-01-18T16:50:52.263Z,29.88
2023-01-18T16:53:20.625Z,39.70
2023-01-18T16:55:51.189Z,41.70
2023-01-18T16:58:21.208Z,32.10
2023-01-18T17:01:02.074Z,32.05
2023-01-18T17:03:30.800Z,29.80
2023-01-18T17:05:59.308Z,28.95
2023-01-18T17:08:27.534Z,28.92
2023-01-18T17:10:56.387Z,27.25
2023-01-18T17:13:24.793Z,28.00
2023-01-18T17:15:54.116Z,29.10
2023-01-18T17:18:26.559Z,27.25
2023-01-18T17:20:56.101Z,26.45
2023-01-18T17:23:26.448Z,27.55
2023-01-18T17:25:55.139Z,25.90
2023-01-18T17:28:23.857Z,26.80
2023-01-18T17:30:52.210Z,28.38
2023-01-18T17:33:26.134Z,28.98
2023-01-18T17:35:55.651Z,26.48
2023-01-18T17:38:27.112Z,27.73
2023-01-18T17:40:57.796Z,32.38
2023-01-18T17:43:33.804Z,27.52
2023-01-18T17:46:04.515Z,29.75
2023-01-18T17:48:33.448Z,29.30
2023-01-18T17:51:02.065Z,32.97
2023-01-18T17:53:30.768Z,29.27
2023-01-18T17:55:59.134Z,30.10
2023-01-18T17:58:27.839Z,33.25
2023-01-18T18:00:56.594Z,29.27
2023-01-18T18:03:25.162Z,29.05
2023-01-18T18:05:59.083Z,28.38
2023-01-18T18:08:27.573Z,30.23
2023-01-18T18:10:56.289Z,30.17
2023-01-18T18:13:25.282Z,29.15
2023-01-18T18:15:54.504Z,30.33
2023-01-18T18:18:24.251Z,28.27
2023-01-18T18:21:04.764Z,29.08
2023-01-18T18:23:33.844Z,28.77
2023-01-18T18:26:03.620Z,28.75
2023-01-18T18:28:34.029Z,28.60
2023-01-18T18:31:02.567Z,28.83
2023-01-18T18:33:33.792Z,28.10
2023-01-18T18:36:02.618Z,28.15
2023-01-18T18:38:31.364Z,26.88
2023-01-18T18:41:05.098Z,30.30
2023-01-18T18:43:33.415Z,28.85
2023-01-18T18:46:01.605Z,29.00
2023-01-18T18:48:29.774Z,29.55
2023-01-18T18:50:58.809Z,28.33
2023-01-18T18:53:37.538Z,28.35
2023-01-18T18:56:10.571Z,28.45
2023-01-18T18:58:39.960Z,27.90
2023-01-18T19:01:19.547Z,29.70
2023-01-18T19:03:48.763Z,28.95
2023-01-18T19:06:18.077Z,30.30
2023-01-18T19:08:46.873Z,29.05
2023-01-18T19:11:16.435Z,27.80
2023-01-18T19:13:45.323Z,27.70
2023-01-18T19:16:13.826Z,26.52
2023-01-18T19:18:42.615Z,26.75
2023-01-18T19:21:11.366Z,27.50
2023-01-18T19:23:40.116Z,27.23
2023-01-18T19:26:08.815Z,28.58
2023-01-18T19:28:37.460Z,27.95
2023-01-18T19:31:08.601Z,27.35
2023-01-18T19:33:37.535Z,28.25
2023-01-18T19:36:15.410Z,29.40
2023-01-18T19:38:48.026Z,28.08
2023-01-18T19:41:18.609Z,28.17
2023-01-18T19:43:50.651Z,27.13
2023-01-18T19:46:20.785Z,27.63
2023-01-18T19:48:49.500Z,28.48
2023-01-18T19:51:22.290Z,27.58
2023-01-18T19:53:55.806Z,27.02
2023-01-18T19:56:26.247Z,28.10
2023-01-18T19:58:54.507Z,27.98
2023-01-18T20:01:35.144Z,29.85
2023-01-18T20:04:07.064Z,29.13
2023-01-18T20:06:38.035Z,27.58
2023-01-18T20:09:18.134Z,27.77
2023-01-18T20:11:48.859Z,26.67
2023-01-18T20:14:18.603Z,25.05
2023-01-18T20:16:47.471Z,28.73
2023-01-18T20:19:18.089Z,28.90
2023-01-18T20:21:46.808Z,26.52
2023-01-18T20:24:15.234Z,27.90
2023-01-18T20:26:44.014Z,26.60
2023-01-18T20:29:12.888Z,29.20
2023-01-18T20:31:44.626Z,30.98
2023-01-18T20:34:17.246Z,30.90
2023-01-18T20:36:46.819Z,28.10
2023-01-18T20:39:15.504Z,27.83
2023-01-18T20:41:44.423Z,27.63
2023-01-18T20:44:13.053Z,26.23
2023-01-18T20:46:41.719Z,25.73
2023-01-18T20:49:10.114Z,25.60
2023-01-18T20:51:40.953Z,25.17
2023-01-18T20:54:09.699Z,25.05
2023-01-18T20:56:38.053Z,23.83
2023-01-18T20:59:06.765Z,26.52
2023-01-18T21:01:35.523Z,26.08
2023-01-18T21:04:05.419Z,24.20
2023-01-18T21:06:34.732Z,24.40
2023-01-18T21:09:03.467Z,23.90
2023-01-18T21:11:32.483Z,25.63
2023-01-18T21:14:01.355Z,24.77
2023-01-18T21:16:30.247Z,23.60
2023-01-18T21:18:59.744Z,23.80
2023-01-18T21:21:30.583Z,22.92
2023-01-18T21:23:59.422Z,25.10
2023-01-18T21:26:28.230Z,24.67
2023-01-18T21:28:57.228Z,22.02
2023-01-18T21:31:25.576Z,24.48
2023-01-18T21:33:54.962Z,22.75
2023-01-18T21:36:23.861Z,24.35
2023-01-18T21:38:52.517Z,25.15
2023-01-18T21:41:39.446Z,24.33
2023-01-18T21:44:26.451Z,25.73
2023-01-18T21:46:55.780Z,25.85
2023-01-18T21:50:11.443Z,26.20
2023-01-18T21:52:49.616Z,25.50
2023-01-18T21:55:18.167Z,26.60
2023-01-18T21:58:06.870Z,24.60
2023-01-18T22:00:40.116Z,24.45
2023-01-18T22:03:10.261Z,24.00
2023-01-18T22:05:41.173Z,24.83
2023-01-18T22:08:10.560Z,27.20
2023-01-18T22:10:39.334Z,26.33
2023-01-18T22:13:07.923Z,26.83
2023-01-18T22:15:36.770Z,27.48
2023-01-18T22:18:06.652Z,26.52
2023-01-18T22:20:35.881Z,27.33
2023-01-18T22:23:04.748Z,27.23
2023-01-18T22:25:33.689Z,27.67
2023-01-18T22:28:02.546Z,27.08
2023-01-18T22:30:31.472Z,28.02
2023-01-18T22:33:00.407Z,28.17
2023-01-18T22:35:32.126Z,28.30
2023-01-18T22:38:00.776Z,27.70
2023-01-18T22:40:29.658Z,27.27
2023-01-18T22:42:58.465Z,28.67
2023-01-18T22:45:27.965Z,28.35
2023-01-18T22:47:56.450Z,29.75
2023-01-18T22:50:24.682Z,27.42
2023-01-18T22:52:53.215Z,27.95
2023-01-18T22:55:21.654Z,27.38
2023-01-18T22:57:50.298Z,27.65
2023-01-18T23:00:19.459Z,28.60
2023-01-18T23:02:48.048Z,27.92
2023-01-18T23:05:16.689Z,29.00
2023-01-18T23:07:45.334Z,29.25
2023-01-18T23:10:13.716Z,28.50
2023-01-18T23:12:42.635Z,31.33
2023-01-18T23:15:32.128Z,28.40
2023-01-18T23:18:00.855Z,27.15
2023-01-18T23:20:29.372Z,28.88
2023-01-18T23:22:57.637Z,28.58
2023-01-18T23:25:26.263Z,30.63
2023-01-18T23:27:54.462Z,28.73
2023-01-18T23:30:23.213Z,30.52
2023-01-18T23:32:51.972Z,30.30
2023-01-18T23:35:20.546Z,30.42
2023-01-18T23:37:49.097Z,30.05
2023-01-18T23:40:36.532Z,28.90
2023-01-18T23:43:23.533Z,28.92
2023-01-18T23:46:10.346Z,28.00
2023-01-18T23:48:57.413Z,27.42
2023-01-18T23:51:44.014Z,29.02
2023-01-18T23:54:18.684Z,28.58
2023-01-18T23:56:48.459Z,29.08
2023-01-18T23:59:17.493Z,31.48
